sensor_id;sensor_type;location;lat;lon;timestamp;pressure;altitude;pressure_sealevel;temperature;humidity
11830;BME280;5972;42.134;24.718;2023-01-23T00:02:26;100483.44;;;9.46;100.00
11830;BME280;5972;42.134;24.718;2023-01-23T00:04:53;100478.16;;;9.41;100.00
11830;BME280;5972;42.134;24.718;2023-01-23T00:07:20;100489.94;;;9.54;100.00
11830;BME280;5972;42.134;24.718;2023-01-23T00:09:47;100485.50;;;9.49;100.00
11830;BME280;5972;42.134;24.718;2023-01-23T00:12:13;100482.94;;;9.53;100.00
11830;BME280;5972;42.134;24.718;2023-01-23T00:14:40;100476.13;;;9.47;100.00
11830;BME280;5972;42.134;24.718;2023-01-23T00:17:07;100493.44;;;9.54;100.00
11830;BME280;5972;42.134;24.718;2023-01-23T00:19:35;100477.25;;;9.54;100.00
11830;BME280;5972;42.134;24.718;2023-01-23T00:22:02;100459.06;;;9.38;100.00
11830;BME280;5972;42.134;24.718;2023-01-23T00:24:29;100489.50;;;9.52;100.00
11830;BME280;5972;42.134;24.718;2023-01-23T00:26:55;100489.00;;;9.50;100.00
11830;BME280;5972;42.134;24.718;2023-01-23T00:29:22;100490.41;;;9.47;100.00
11830;BME280;5972;42.134;24.718;2023-01-23T00:31:49;100488.50;;;9.48;100.00
11830;BME280;5972;42.134;24.718;2023-01-23T00:34:16;100492.03;;;9.57;100.00
11830;BME280;5972;42.134;24.718;2023-01-23T00:36:44;100459.38;;;9.36;100.00
11830;BME280;5972;42.134;24.718;2023-01-23T00:39:15;100499.97;;;9.53;100.00
11830;BME280;5972;42.134;24.718;2023-01-23T00:41:43;100492.84;;;9.57;100.00
11830;BME280;5972;42.134;24.718;2023-01-23T00:44:10;100489.66;;;9.55;100.00
11830;BME280;5972;42.134;24.718;2023-01-23T00:46:36;100490.75;;;9.54;100.00
11830;BME280;5972;42.134;24.718;2023-01-23T00:49:03;100497.44;;;9.57;100.00
11830;BME280;5972;42.134;24.718;2023-01-23T00:51:30;100505.84;;;9.55;100.00
11830;BME280;5972;42.134;24.718;2023-01-23T00:53:59;100510.78;;;9.53;100.00
11830;BME280;5972;42.134;24.718;2023-01-23T00:56:27;100500.09;;;9.48;100.00
11830;BME280;5972;42.134;24.718;2023-01-23T00:58:53;100504.56;;;9.53;100.00
11830;BME280;5972;42.134;24.718;2023-01-23T01:01:20;100514.13;;;9.59;100.00
11830;BME280;5972;42.134;24.718;2023-01-23T01:03:48;100492.34;;;9.55;100.00
11830;BME280;5972;42.134;24.718;2023-01-23T01:06:14;100486.78;;;9.52;100.00
11830;BME280;5972;42.134;24.718;2023-01-23T01:08:41;100492.66;;;9.54;100.00
11830;BME280;5972;42.134;24.718;2023-01-23T01:11:10;100517.31;;;9.61;100.00
11830;BME280;5972;42.134;24.718;2023-01-23T01:13:36;100517.31;;;9.61;100.00
11830;BME280;5972;42.134;24.718;2023-01-23T01:16:04;100518.94;;;9.62;100.00
11830;BME280;5972;42.134;24.718;2023-01-23T01:18:31;100506.00;;;9.50;100.00
11830;BME280;5972;42.134;24.718;2023-01-23T01:20:58;100526.09;;;9.67;100.00
11830;BME280;5972;42.134;24.718;2023-01-23T01:23:26;100530.34;;;9.59;100.00
11830;BME280;5972;42.134;24.718;2023-01-23T01:25:57;100526.69;;;9.55;100.00
11830;BME280;5972;42.134;24.718;2023-01-23T01:28:26;100544.19;;;9.57;100.00
11830;BME280;5972;42.134;24.718;2023-01-23T01:30:54;100532.88;;;9.55;100.00
11830;BME280;5972;42.134;24.718;2023-01-23T01:33:21;100538.44;;;9.59;100.00
11830;BME280;5972;42.134;24.718;2023-01-23T01:35:50;100541.94;;;9.59;100.00
11830;BME280;5972;42.134;24.718;2023-01-23T01:38:16;100536.06;;;9.57;100.00
11830;BME280;5972;42.134;24.718;2023-01-23T01:40:43;100527.91;;;9.49;100.00
11830;BME280;5972;42.134;24.718;2023-01-23T01:43:17;100539.75;;;9.62;100.00
11830;BME280;5972;42.134;24.718;2023-01-23T01:46:10;100548.50;;;9.67;100.00
11830;BME280;5972;42.134;24.718;2023-01-23T01:48:41;100537.47;;;9.55;100.00
11830;BME280;5972;42.134;24.718;2023-01-23T01:51:12;100538.94;;;9.61;100.00
11830;BME280;5972;42.134;24.718;2023-01-23T01:53:42;100534.34;;;9.62;100.00
11830;BME280;5972;42.134;24.718;2023-01-23T01:56:11;100521.56;;;9.53;100.00
11830;BME280;5972;42.134;24.718;2023-01-23T01:58:41;100533.69;;;9.56;100.00
11830;BME280;5972;42.134;24.718;2023-01-23T02:01:10;100542.75;;;9.60;100.00
11830;BME280;5972;42.134;24.718;2023-01-23T02:03:39;100526.00;;;9.49;100.00
11830;BME280;5972;42.134;24.718;2023-01-23T02:06:06;100551.78;;;9.55;100.00
11830;BME280;5972;42.134;24.718;2023-01-23T02:08:38;100544.78;;;9.54;100.00
11830;BME280;5972;42.134;24.718;2023-01-23T02:11:08;100546.88;;;9.57;100.00
11830;BME280;5972;42.134;24.718;2023-01-23T02:13:36;100543.69;;;9.55;100.00
11830;BME280;5972;42.134;24.718;2023-01-23T02:16:06;100522.16;;;9.42;100.00
11830;BME280;5972;42.134;24.718;2023-01-23T02:18:37;100537.19;;;9.56;100.00
11830;BME280;5972;42.134;24.718;2023-01-23T02:21:07;100544.66;;;9.59;100.00
11830;BME280;5972;42.134;24.718;2023-01-23T02:23:42;100526.66;;;9.46;100.00
11830;BME280;5972;42.134;24.718;2023-01-23T02:26:13;100549.41;;;9.54;100.00
11830;BME280;5972;42.134;24.718;2023-01-23T02:28:43;100537.34;;;9.60;100.00
11830;BME280;5972;42.134;24.718;2023-01-23T02:31:11;100534.94;;;9.58;100.00
11830;BME280;5972;42.134;24.718;2023-01-23T02:33:44;100525.53;;;9.47;100.00
11830;BME280;5972;42.134;24.718;2023-01-23T02:36:11;100552.91;;;9.54;100.00
11830;BME280;5972;42.134;24.718;2023-01-23T02:38:43;100537.47;;;9.55;100.00
11830;BME280;5972;42.134;24.718;2023-01-23T02:41:15;100524.56;;;9.43;100.00
11830;BME280;5972;42.134;24.718;2023-01-23T02:43:43;100542.75;;;9.60;100.00
11830;BME280;5972;42.134;24.718;2023-01-23T02:46:11;100538.28;;;9.55;100.00
11830;BME280;5972;42.134;24.718;2023-01-23T02:48:39;100534.25;;;9.44;100.00
11830;BME280;5972;42.134;24.718;2023-01-23T02:51:08;100526.47;;;9.43;100.00
11830;BME280;5972;42.134;24.718;2023-01-23T02:53:35;100543.69;;;9.55;100.00
11830;BME280;5972;42.134;24.718;2023-01-23T02:56:07;100559.09;;;9.55;100.00
11830;BME280;5972;42.134;24.718;2023-01-23T02:58:35;100556.41;;;9.55;100.00
11830;BME280;5972;42.134;24.718;2023-01-23T03:01:19;100556.09;;;9.56;100.00
11830;BME280;5972;42.134;24.718;2023-01-23T03:03:46;100563.09;;;9.57;100.00
11830;BME280;5972;42.134;24.718;2023-01-23T03:06:16;100559.91;;;9.55;100.00
11830;BME280;5972;42.134;24.718;2023-01-23T03:08:44;100533.47;;;9.44;100.00
11830;BME280;5972;42.134;24.718;2023-01-23T03:11:15;100555.91;;;9.53;100.00
11830;BME280;5972;42.134;24.718;2023-01-23T03:13:45;100568.13;;;9.50;100.00
11830;BME280;5972;42.134;24.718;2023-01-23T03:16:12;100557.63;;;9.49;100.00
11830;BME280;5972;42.134;24.718;2023-01-23T03:18:38;100557.84;;;9.52;100.00
11830;BME280;5972;42.134;24.718;2023-01-23T03:21:06;100543.59;;;9.38;100.00
11830;BME280;5972;42.134;24.718;2023-01-23T03:23:34;100566.72;;;9.53;100.00
11830;BME280;5972;42.134;24.718;2023-01-23T03:26:01;100534.41;;;9.39;100.00
11830;BME280;5972;42.134;24.718;2023-01-23T03:28:28;100567.03;;;9.51;100.00
11830;BME280;5972;42.134;24.718;2023-01-23T03:31:15;100556.03;;;9.48;100.00
11830;BME280;5972;42.134;24.718;2023-01-23T03:33:42;100568.44;;;9.49;100.00
11830;BME280;5972;42.134;24.718;2023-01-23T03:36:10;100555.38;;;9.42;100.00
11830;BME280;5972;42.134;24.718;2023-01-23T03:38:37;100570.03;;;9.50;100.00
11830;BME280;5972;42.134;24.718;2023-01-23T03:41:24;100555.88;;;9.44;100.00
11830;BME280;5972;42.134;24.718;2023-01-23T03:43:50;100562.38;;;9.43;100.00
11830;BME280;5972;42.134;24.718;2023-01-23T03:46:18;100564.28;;;9.43;100.00
11830;BME280;5972;42.134;24.718;2023-01-23T03:48:45;100566.94;;;9.34;100.00
11830;BME280;5972;42.134;24.718;2023-01-23T03:51:12;100564.53;;;9.33;100.00
11830;BME280;5972;42.134;24.718;2023-01-23T03:53:39;100559.25;;;9.19;100.00
11830;BME280;5972;42.134;24.718;2023-01-23T03:56:06;100578.19;;;9.28;100.00
11830;BME280;5972;42.134;24.718;2023-01-23T03:58:33;100576.28;;;9.28;100.00
11830;BME280;5972;42.134;24.718;2023-01-23T04:00:59;100579.28;;;9.27;100.00
11830;BME280;5972;42.134;24.718;2023-01-23T04:03:29;100579.13;;;9.23;100.00
11830;BME280;5972;42.134;24.718;2023-01-23T04:05:56;100582.56;;;9.15;100.00
11830;BME280;5972;42.134;24.718;2023-01-23T04:08:24;100578.31;;;9.23;100.00
11830;BME280;5972;42.134;24.718;2023-01-23T04:10:50;100590.97;;;9.13;100.00
11830;BME280;5972;42.134;24.718;2023-01-23T04:13:17;100596.38;;;9.13;100.00
11830;BME280;5972;42.134;24.718;2023-01-23T04:15:44;100595.06;;;9.11;100.00
11830;BME280;5972;42.134;24.718;2023-01-23T04:18:11;100603.47;;;9.09;100.00
11830;BME280;5972;42.134;24.718;2023-01-23T04:20:39;100599.97;;;9.09;100.00
11830;BME280;5972;42.134;24.718;2023-01-23T04:23:06;100594.03;;;8.98;100.00
11830;BME280;5972;42.134;24.718;2023-01-23T04:25:32;100611.56;;;9.09;100.00
11830;BME280;5972;42.134;24.718;2023-01-23T04:27:59;100611.69;;;9.04;100.00
11830;BME280;5972;42.134;24.718;2023-01-23T04:30:26;100594.91;;;8.85;100.00
11830;BME280;5972;42.134;24.718;2023-01-23T04:32:53;100600.97;;;8.91;100.00
11830;BME280;5972;42.134;24.718;2023-01-23T04:35:19;100625.16;;;8.96;100.00
11830;BME280;5972;42.134;24.718;2023-01-23T04:37:48;100637.16;;;8.90;100.00
11830;BME280;5972;42.134;24.718;2023-01-23T04:40:14;100627.28;;;8.85;100.00
11830;BME280;5972;42.134;24.718;2023-01-23T04:42:41;100624.59;;;8.85;100.00
11830;BME280;5972;42.134;24.718;2023-01-23T04:45:09;100603.16;;;8.66;100.00
11830;BME280;5972;42.134;24.718;2023-01-23T04:47:36;100627.06;;;8.82;100.00
11830;BME280;5972;42.134;24.718;2023-01-23T04:50:05;100631.19;;;8.79;100.00
11830;BME280;5972;42.134;24.718;2023-01-23T04:52:31;100639.59;;;8.77;100.00
11830;BME280;5972;42.134;24.718;2023-01-23T04:54:59;100630.50;;;8.73;100.00
11830;BME280;5972;42.134;24.718;2023-01-23T04:57:26;100635.41;;;8.71;100.00
11830;BME280;5972;42.134;24.718;2023-01-23T04:59:53;100635.69;;;8.70;100.00
11830;BME280;5972;42.134;24.718;2023-01-23T05:02:20;100636.81;;;8.69;100.00
11830;BME280;5972;42.134;24.718;2023-01-23T05:04:47;100642.81;;;8.66;100.00
11830;BME280;5972;42.134;24.718;2023-01-23T05:07:14;100635.13;;;8.59;100.00
11830;BME280;5972;42.134;24.718;2023-01-23T05:09:41;100659.31;;;8.64;100.00
11830;BME280;5972;42.134;24.718;2023-01-23T05:12:09;100653.59;;;8.66;100.00
11830;BME280;5972;42.134;24.718;2023-01-23T05:14:35;100644.81;;;8.60;100.00
11830;BME280;5972;42.134;24.718;2023-01-23T05:17:02;100650.44;;;8.50;100.00
11830;BME280;5972;42.134;24.718;2023-01-23T05:19:29;100659.63;;;8.63;100.00
11830;BME280;5972;42.134;24.718;2023-01-23T05:21:56;100654.16;;;8.41;100.00
11830;BME280;5972;42.134;24.718;2023-01-23T05:24:23;100663.31;;;8.53;100.00
11830;BME280;5972;42.134;24.718;2023-01-23T05:26:49;100651.94;;;8.43;100.00
11830;BME280;5972;42.134;24.718;2023-01-23T05:29:17;100676.09;;;8.48;100.00
11830;BME280;5972;42.134;24.718;2023-01-23T05:31:44;100674.59;;;8.55;100.00
11830;BME280;5972;42.134;24.718;2023-01-23T05:34:11;100672.22;;;8.54;100.00
11830;BME280;5972;42.134;24.718;2023-01-23T05:36:38;100679.50;;;8.53;100.00
11830;BME280;5972;42.134;24.718;2023-01-23T05:39:04;100677.59;;;8.54;100.00
11830;BME280;5972;42.134;24.718;2023-01-23T05:41:31;100684.31;;;8.56;100.00
11830;BME280;5972;42.134;24.718;2023-01-23T05:43:58;100685.59;;;8.59;100.00
11830;BME280;5972;42.134;24.718;2023-01-23T05:46:26;100686.09;;;8.61;100.00
11830;BME280;5972;42.134;24.718;2023-01-23T05:48:53;100682.31;;;8.48;100.00
11830;BME280;5972;42.134;24.718;2023-01-23T05:51:19;100683.41;;;8.61;100.00
11830;BME280;5972;42.134;24.718;2023-01-23T05:53:47;100701.66;;;8.64;100.00
11830;BME280;5972;42.134;24.718;2023-01-23T05:56:14;100699.06;;;8.59;100.00
11830;BME280;5972;42.134;24.718;2023-01-23T05:58:41;100695.09;;;8.56;100.00
11830;BME280;5972;42.134;24.718;2023-01-23T06:01:07;100685.22;;;8.38;100.00
11830;BME280;5972;42.134;24.718;2023-01-23T06:03:36;100672.44;;;8.30;100.00
11830;BME280;5972;42.134;24.718;2023-01-23T06:06:02;100709.50;;;8.52;100.00
11830;BME280;5972;42.134;24.718;2023-01-23T06:08:31;100687.72;;;8.34;100.00
11830;BME280;5972;42.134;24.718;2023-01-23T06:10:58;100715.75;;;8.47;100.00
11830;BME280;5972;42.134;24.718;2023-01-23T06:13:25;100735.16;;;8.49;100.00
11830;BME280;5972;42.134;24.718;2023-01-23T06:15:52;100719.78;;;8.50;100.00
11830;BME280;5972;42.134;24.718;2023-01-23T06:18:18;100739.06;;;8.43;100.00
11830;BME280;5972;42.134;24.718;2023-01-23T06:20:49;100737.06;;;8.49;100.00
11830;BME280;5972;42.134;24.718;2023-01-23T06:30:20;100591.88;;;7.41;100.00
11830;BME280;5972;42.134;24.718;2023-01-23T06:32:47;100720.38;;;8.33;100.00
11830;BME280;5972;42.134;24.718;2023-01-23T06:35:14;100751.63;;;8.48;100.00
11830;BME280;5972;42.134;24.718;2023-01-23T06:37:42;100747.38;;;8.47;100.00
11830;BME280;5972;42.134;24.718;2023-01-23T06:40:10;100754.03;;;8.49;100.00
11830;BME280;5972;42.134;24.718;2023-01-23T06:42:38;100751.44;;;8.44;100.00
11830;BME280;5972;42.134;24.718;2023-01-23T06:45:06;100748.84;;;8.39;100.00
11830;BME280;5972;42.134;24.718;2023-01-23T06:47:34;100764.22;;;8.39;100.00
11830;BME280;5972;42.134;24.718;2023-01-23T06:50:01;100773.53;;;8.46;100.00
11830;BME280;5972;42.134;24.718;2023-01-23T06:52:28;100758.44;;;8.45;100.00
11830;BME280;5972;42.134;24.718;2023-01-23T06:54:56;100770.03;;;8.59;100.00
11830;BME280;5972;42.134;24.718;2023-01-23T06:57:23;100769.53;;;8.57;100.00
11830;BME280;5972;42.134;24.718;2023-01-23T06:59:50;100762.84;;;8.55;100.00
11830;BME280;5972;42.134;24.718;2023-01-23T07:02:16;100773.91;;;8.53;100.00
11830;BME280;5972;42.134;24.718;2023-01-23T07:04:43;100761.94;;;8.59;100.00
11830;BME280;5972;42.134;24.718;2023-01-23T07:07:10;100774.31;;;8.60;100.00
11830;BME280;5972;42.134;24.718;2023-01-23T07:09:37;100747.16;;;8.43;100.00
11830;BME280;5972;42.134;24.718;2023-01-23T07:12:06;100763.81;;;8.59;100.00
11830;BME280;5972;42.134;24.718;2023-01-23T07:14:33;100752.81;;;8.42;100.00
11830;BME280;5972;42.134;24.718;2023-01-23T07:17:09;100771.72;;;8.55;100.00
11830;BME280;5972;42.134;24.718;2023-01-23T07:19:36;100768.41;;;8.58;100.00
11830;BME280;5972;42.134;24.718;2023-01-23T07:22:04;100775.75;;;8.58;100.00
11830;BME280;5972;42.134;24.718;2023-01-23T07:24:31;100766.84;;;8.57;100.00
11830;BME280;5972;42.134;24.718;2023-01-23T07:26:58;100755.03;;;8.53;100.00
11830;BME280;5972;42.134;24.718;2023-01-23T07:29:26;100766.75;;;8.62;100.00
11830;BME280;5972;42.134;24.718;2023-01-23T07:31:53;100745.75;;;8.46;100.00
11830;BME280;5972;42.134;24.718;2023-01-23T07:34:20;100764.34;;;8.61;100.00
11830;BME280;5972;42.134;24.718;2023-01-23T07:36:46;100757.84;;;8.62;100.00
11830;BME280;5972;42.134;24.718;2023-01-23T07:39:13;100767.03;;;8.61;100.00
11830;BME280;5972;42.134;24.718;2023-01-23T07:41:40;100765.44;;;8.60;100.00
11830;BME280;5972;42.134;24.718;2023-01-23T07:44:07;100737.28;;;8.52;100.00
11830;BME280;5972;42.134;24.718;2023-01-23T07:46:42;100768.34;;;8.63;100.00
11830;BME280;5972;42.134;24.718;2023-01-23T07:49:09;100764.84;;;8.63;100.00
11830;BME280;5972;42.134;24.718;2023-01-23T07:51:36;100751.53;;;8.66;100.00
11830;BME280;5972;42.134;24.718;2023-01-23T07:54:03;100753.16;;;8.67;100.00
11830;BME280;5972;42.134;24.718;2023-01-23T07:56:29;100769.03;;;8.69;100.00
11830;BME280;5972;42.134;24.718;2023-01-23T07:58:57;100755.34;;;8.65;100.00
11830;BME280;5972;42.134;24.718;2023-01-23T08:01:23;100751.72;;;8.70;100.00
11830;BME280;5972;42.134;24.718;2023-01-23T08:03:52;100755.56;;;8.69;100.00
11830;BME280;5972;42.134;24.718;2023-01-23T08:06:19;100748.34;;;8.78;100.00
11830;BME280;5972;42.134;24.718;2023-01-23T08:08:46;100768.50;;;8.81;100.00
11830;BME280;5972;42.134;24.718;2023-01-23T08:11:14;100707.66;;;8.47;100.00
11830;BME280;5972;42.134;24.718;2023-01-23T08:13:41;100774.81;;;8.76;100.00
11830;BME280;5972;42.134;24.718;2023-01-23T08:16:08;100767.13;;;8.83;100.00
11830;BME280;5972;42.134;24.718;2023-01-23T08:18:35;100765.53;;;8.82;100.00
11830;BME280;5972;42.134;24.718;2023-01-23T08:21:03;100760.72;;;8.65;100.00
11830;BME280;5972;42.134;24.718;2023-01-23T08:23:32;100763.66;;;8.69;100.00
11830;BME280;5972;42.134;24.718;2023-01-23T08:26:02;100785.03;;;8.79;100.00
11830;BME280;5972;42.134;24.718;2023-01-23T08:28:32;100793.81;;;8.85;100.00
11830;BME280;5972;42.134;24.718;2023-01-23T08:31:00;100796.72;;;8.88;100.00
11830;BME280;5972;42.134;24.718;2023-01-23T08:33:28;100806.41;;;8.89;100.00
11830;BME280;5972;42.134;24.718;2023-01-23T08:35:56;100776.53;;;8.86;100.00
11830;BME280;5972;42.134;24.718;2023-01-23T08:38:25;100799.19;;;8.98;100.00
11830;BME280;5972;42.134;24.718;2023-01-23T08:40:52;100813.00;;;8.97;100.00
11830;BME280;5972;42.134;24.718;2023-01-23T08:43:20;100787.41;;;8.81;100.00
11830;BME280;5972;42.134;24.718;2023-01-23T08:45:49;100794.50;;;8.90;100.00
11830;BME280;5972;42.134;24.718;2023-01-23T08:48:18;100804.50;;;8.90;100.00
11830;BME280;5972;42.134;24.718;2023-01-23T08:50:45;100809.22;;;8.84;100.00
11830;BME280;5972;42.134;24.718;2023-01-23T08:53:12;100804.41;;;8.81;100.00
11830;BME280;5972;42.134;24.718;2023-01-23T08:55:41;100800.91;;;8.81;100.00
11830;BME280;5972;42.134;24.718;2023-01-23T08:58:09;100802.41;;;8.87;100.00
11830;BME280;5972;42.134;24.718;2023-01-23T09:00:37;100799.91;;;8.76;100.00
11830;BME280;5972;42.134;24.718;2023-01-23T09:03:04;100791.59;;;8.87;100.00
11830;BME280;5972;42.134;24.718;2023-01-23T09:05:34;100801.31;;;8.88;100.00
11830;BME280;5972;42.134;24.718;2023-01-23T09:08:01;100806.81;;;8.96;100.00
11830;BME280;5972;42.134;24.718;2023-01-23T09:10:28;100792.91;;;8.89;100.00
11830;BME280;5972;42.134;24.718;2023-01-23T09:12:57;100769.81;;;8.83;100.00
11830;BME280;5972;42.134;24.718;2023-01-23T09:15:23;100774.13;;;8.84;100.00
11830;BME280;5972;42.134;24.718;2023-01-23T09:17:50;100780.81;;;9.00;100.00
11830;BME280;5972;42.134;24.718;2023-01-23T09:20:17;100791.50;;;9.05;100.00
11830;BME280;5972;42.134;24.718;2023-01-23T09:22:44;100762.41;;;8.89;100.00
11830;BME280;5972;42.134;24.718;2023-01-23T09:25:11;100775.28;;;9.05;100.00
11830;BME280;5972;42.134;24.718;2023-01-23T09:27:38;100780.41;;;9.07;100.00
11830;BME280;5972;42.134;24.718;2023-01-23T09:30:08;100791.50;;;9.05;100.00
11830;BME280;5972;42.134;24.718;2023-01-23T09:32:37;100786.91;;;8.92;100.00
11830;BME280;5972;42.134;24.718;2023-01-23T09:35:04;100796.19;;;9.00;100.00
11830;BME280;5972;42.134;24.718;2023-01-23T09:37:32;100781.91;;;8.99;100.00
11830;BME280;5972;42.134;24.718;2023-01-23T09:40:22;100764.03;;;8.90;100.00
11830;BME280;5972;42.134;24.718;2023-01-23T09:42:51;100793.22;;;9.01;100.00
11830;BME280;5972;42.134;24.718;2023-01-23T09:45:23;100780.06;;;9.08;100.00
11830;BME280;5972;42.134;24.718;2023-01-23T09:47:54;100796.50;;;9.12;100.00
11830;BME280;5972;42.134;24.718;2023-01-23T09:50:27;100792.59;;;9.04;100.00
11830;BME280;5972;42.134;24.718;2023-01-23T09:52:59;100752.25;;;8.86;100.00
11830;BME280;5972;42.134;24.718;2023-01-23T09:55:37;100805.50;;;9.07;100.00
11830;BME280;5972;42.134;24.718;2023-01-23T09:58:14;100782.28;;;9.06;100.00
11830;BME280;5972;42.134;24.718;2023-01-23T10:00:44;100779.78;;;9.10;100.00
11830;BME280;5972;42.134;24.718;2023-01-23T10:03:13;100785.56;;;9.17;100.00
11830;BME280;5972;42.134;24.718;2023-01-23T10:05:45;100774.84;;;9.26;100.00
11830;BME280;5972;42.134;24.718;2023-01-23T10:08:21;100779.84;;;9.32;100.00
11830;BME280;5972;42.134;24.718;2023-01-23T10:10:58;100733.47;;;9.03;100.00
11830;BME280;5972;42.134;24.718;2023-01-23T10:13:38;100735.19;;;8.99;100.00
11830;BME280;5972;42.134;24.718;2023-01-23T10:16:29;100741.16;;;9.23;100.00
11830;BME280;5972;42.134;24.718;2023-01-23T10:19:14;100762.63;;;9.28;100.00
11830;BME280;5972;42.134;24.718;2023-01-23T10:22:03;100744.84;;;9.27;100.00
11830;BME280;5972;42.134;24.718;2023-01-23T10:24:43;100728.47;;;9.10;100.00
11830;BME280;5972;42.134;24.718;2023-01-23T10:27:17;100760.44;;;9.30;100.00
11830;BME280;5972;42.134;24.718;2023-01-23T10:29:48;100760.63;;;9.34;100.00
11830;BME280;5972;42.134;24.718;2023-01-23T10:32:24;100760.00;;;9.37;100.00
11830;BME280;5972;42.134;24.718;2023-01-23T10:34:56;100744.94;;;9.22;100.00
11830;BME280;5972;42.134;24.718;2023-01-23T10:37:37;100754.72;;;9.32;100.00
11830;BME280;5972;42.134;24.718;2023-01-23T10:40:11;100748.34;;;9.28;100.00
11830;BME280;5972;42.134;24.718;2023-01-23T10:42:38;100756.72;;;9.26;100.00
11830;BME280;5972;42.134;24.718;2023-01-23T10:45:10;100719.00;;;8.99;100.00
11830;BME280;5972;42.134;24.718;2023-01-23T10:47:44;100722.84;;;9.20;100.00
11830;BME280;5972;42.134;24.718;2023-01-23T10:50:11;100750.41;;;9.31;100.00
11830;BME280;5972;42.134;24.718;2023-01-23T10:52:40;100733.28;;;9.13;100.00
11830;BME280;5972;42.134;24.718;2023-01-23T10:55:26;100741.28;;;9.18;100.00
11830;BME280;5972;42.134;24.718;2023-01-23T10:57:55;100698.72;;;9.01;100.00
11830;BME280;5972;42.134;24.718;2023-01-23T11:00:26;100710.78;;;9.04;100.00
11830;BME280;5972;42.134;24.718;2023-01-23T11:02:58;100732.25;;;9.23;100.00
11830;BME280;5972;42.134;24.718;2023-01-23T11:05:43;100750.53;;;9.26;100.00
11830;BME280;5972;42.134;24.718;2023-01-23T11:08:22;100752.25;;;9.22;100.00
11830;BME280;5972;42.134;24.718;2023-01-23T11:10:49;100742.38;;;9.17;100.00
11830;BME280;5972;42.134;24.718;2023-01-23T11:13:25;100751.84;;;9.14;100.00
11830;BME280;5972;42.134;24.718;2023-01-23T11:15:56;100701.88;;;9.03;100.00
11830;BME280;5972;42.134;24.718;2023-01-23T11:18:39;100746.16;;;9.16;100.00
11830;BME280;5972;42.134;24.718;2023-01-23T11:21:22;100758.38;;;9.13;100.00
11830;BME280;5972;42.134;24.718;2023-01-23T11:24:07;100716.31;;;8.99;100.00
11830;BME280;5972;42.134;24.718;2023-01-23T11:26:36;100730.38;;;9.09;100.00
11830;BME280;5972;42.134;24.718;2023-01-23T11:29:21;100740.59;;;9.12;100.00
11830;BME280;5972;42.134;24.718;2023-01-23T11:31:50;100710.91;;;8.99;100.00
11830;BME280;5972;42.134;24.718;2023-01-23T11:34:23;100727.16;;;9.21;100.00
11830;BME280;5972;42.134;24.718;2023-01-23T11:36:58;100746.06;;;9.21;100.00
11830;BME280;5972;42.134;24.718;2023-01-23T11:39:41;100758.00;;;9.06;100.00
11830;BME280;5972;42.134;24.718;2023-01-23T11:42:10;100693.75;;;8.81;100.00
11830;BME280;5972;42.134;24.718;2023-01-23T11:44:38;100737.69;;;9.09;100.00
11830;BME280;5972;42.134;24.718;2023-01-23T11:47:28;100707.03;;;8.91;100.00
11830;BME280;5972;42.134;24.718;2023-01-23T11:50:13;100728.00;;;9.08;100.00
11830;BME280;5972;42.134;24.718;2023-01-23T11:52:48;100750.31;;;9.00;100.00
11830;BME280;5972;42.134;24.718;2023-01-23T11:55:40;100750.13;;;8.96;100.00
11830;BME280;5972;42.134;24.718;2023-01-23T11:58:21;100748.00;;;8.93;100.00
11830;BME280;5972;42.134;24.718;2023-01-23T12:01:01;100724.84;;;8.79;100.00
11830;BME280;5972;42.134;24.718;2023-01-23T12:06:38;100731.34;;;8.77;100.00
11830;BME280;5972;42.134;24.718;2023-01-23T12:09:11;100756.09;;;8.93;100.00
11830;BME280;5972;42.134;24.718;2023-01-23T12:11:51;100749.63;;;8.94;100.00
11830;BME280;5972;42.134;24.718;2023-01-23T12:14:28;100745.19;;;8.98;100.00
11830;BME280;5972;42.134;24.718;2023-01-23T12:17:07;100747.41;;;8.96;100.00
11830;BME280;5972;42.134;24.718;2023-01-23T12:19:49;100741.41;;;8.99;100.00
11830;BME280;5972;42.134;24.718;2023-01-23T12:22:29;100739.69;;;9.03;100.00
11830;BME280;5972;42.134;24.718;2023-01-23T12:25:10;100754.00;;;9.04;100.00
11830;BME280;5972;42.134;24.718;2023-01-23T12:27:41;100744.91;;;9.00;100.00
11830;BME280;5972;42.134;24.718;2023-01-23T12:33:10;100756.31;;;8.97;100.00
11830;BME280;5972;42.134;24.718;2023-01-23T12:35:51;100767.53;;;8.90;100.00
11830;BME280;5972;42.134;24.718;2023-01-23T12:38:29;100734.34;;;8.76;100.00
11830;BME280;5972;42.134;24.718;2023-01-23T12:41:10;100760.00;;;8.87;100.00
11830;BME280;5972;42.134;24.718;2023-01-23T12:43:44;100677.22;;;8.33;100.00
11830;BME280;5972;42.134;24.718;2023-01-23T12:46:16;100768.31;;;8.77;100.00
11830;BME280;5972;42.134;24.718;2023-01-23T12:48:50;100764.22;;;8.66;100.00
11830;BME280;5972;42.134;24.718;2023-01-23T12:51:32;100765.81;;;8.40;100.00
11830;BME280;5972;42.134;24.718;2023-01-23T12:54:05;100725.91;;;7.96;100.00
11830;BME280;5972;42.134;24.718;2023-01-23T12:56:41;100746.38;;;8.10;100.00
11830;BME280;5972;42.134;24.718;2023-01-23T12:59:35;100599.25;;;7.03;100.00
11830;BME280;5972;42.134;24.718;2023-01-23T13:02:18;100761.66;;;8.01;100.00
11830;BME280;5972;42.134;24.718;2023-01-23T13:05:05;100752.94;;;7.90;100.00
11830;BME280;5972;42.134;24.718;2023-01-23T13:07:50;100663.38;;;7.34;100.00
11830;BME280;5972;42.134;24.718;2023-01-23T13:10:28;100780.81;;;8.00;100.00
11830;BME280;5972;42.134;24.718;2023-01-23T13:13:12;100693.72;;;7.39;100.00
11830;BME280;5972;42.134;24.718;2023-01-23T13:15:40;100802.97;;;7.97;100.00
11830;BME280;5972;42.134;24.718;2023-01-23T13:18:21;100808.13;;;7.93;100.00
11830;BME280;5972;42.134;24.718;2023-01-23T13:20:55;100769.66;;;7.74;100.00